Time;durP1;ratioP1;P1;durP2;ratioP2;P2;SDS_P1;SDS_P2;PMS_P1;PMS_P2;Temp;Humidity;BMP_temperature;BMP_pressure;BME280_temperature;BME280_humidity;BME280_pressure;Samples;Min_cycle;Max_cycle;Signal;HPM_P1;HPM_P2
2022/05/03 00:02:27;;;;;;;4.97;2.98;;;;;;;20.41;39.64;100800.98;1721550;83;21032;-76
2022/05/03 00:05:08;;;;;;;5.20;2.92;;;;;;;20.40;39.65;100799.34;1721329;83;21129;-76
2022/05/03 00:08:09;;;;;;;5.03;3.30;;;;;;;20.39;39.66;100797.14;1721167;82;21084;-76
2022/05/03 00:11:09;;;;;;;6.10;3.10;;;;;;;20.39;39.68;100797.70;1721589;83;21001;-76
2022/05/03 00:13:43;;;;;;;4.92;2.80;;;;;;;20.38;39.68;100799.65;1721521;82;21033;-76
2022/05/03 00:16:10;;;;;;;3.80;3.00;;;;;;;20.38;39.69;100791.92;1721210;81;21102;-76
2022/05/03 00:18:37;;;;;;;4.72;3.42;;;;;;;20.38;39.72;100788.59;1721470;81;21694;-76
2022/05/03 00:21:03;;;;;;;5.35;3.20;;;;;;;20.37;39.74;100784.19;1721145;81;21036;-76
2022/05/03 00:23:29;;;;;;;5.80;3.27;;;;;;;20.39;39.76;100793.00;1703220;83;21512;-77
2022/05/03 00:25:56;;;;;;;4.35;3.08;;;;;;;20.38;39.77;100786.39;1721449;83;21056;-76
2022/05/03 00:28:22;;;;;;;5.65;3.17;;;;;;;20.40;39.79;100789.67;1721223;82;21096;-76
2022/05/03 00:30:49;;;;;;;6.47;3.37;;;;;;;20.40;39.79;100791.05;1721399;83;21134;-76
2022/05/03 00:33:16;;;;;;;4.42;3.00;;;;;;;20.40;39.80;100786.91;1721561;82;21060;-76
2022/05/03 00:35:43;;;;;;;5.70;3.05;;;;;;;20.39;39.82;100783.89;1721113;83;21060;-76
2022/05/03 00:38:10;;;;;;;5.75;2.83;;;;;;;20.40;39.85;100782.20;1721340;83;21021;-76
2022/05/03 00:40:49;;;;;;;5.58;3.10;;;;;;;20.40;39.83;100789.67;1721485;83;21607;-76
2022/05/03 00:43:25;;;;;;;5.53;3.08;;;;;;;20.41;39.84;100783.02;1721043;81;21149;-76
2022/05/03 00:46:02;;;;;;;4.58;2.90;;;;;;;20.40;39.86;100787.73;1721317;83;21372;-76
2022/05/03 00:49:09;;;;;;;4.28;3.17;;;;;;;20.40;39.84;100783.58;1717548;82;20993;-76
2022/05/03 00:51:47;;;;;;;5.70;3.45;;;;;;;20.40;39.86;100782.20;1720716;83;21068;-76
2022/05/03 00:54:42;;;;;;;4.37;2.98;;;;;;;20.40;39.86;100790.48;1719186;83;21159;-76
2022/05/03 00:57:33;;;;;;;5.62;3.17;;;;;;;20.39;39.87;100781.94;1719618;83;21593;-76
2022/05/03 01:00:11;;;;;;;4.60;3.37;;;;;;;20.39;39.87;100785.27;1718253;83;21134;-76
2022/05/03 01:02:46;;;;;;;5.12;3.05;;;;;;;20.39;39.89;100786.65;1715584;81;21024;-76
2022/05/03 01:05:12;;;;;;;5.25;3.17;;;;;;;20.37;39.90;100784.19;1720293;82;21041;-76
2022/05/03 01:07:44;;;;;;;4.45;2.98;;;;;;;20.37;39.93;100776.46;1720946;83;21080;-76
2022/05/03 01:10:56;;;;;;;5.62;3.25;;;;;;;20.37;39.96;100782.81;1719392;82;21145;-76
2022/05/03 01:13:32;;;;;;;4.80;3.35;;;;;;;20.38;39.97;100780.86;1717949;82;21096;-76
2022/05/03 01:16:10;;;;;;;4.83;3.30;;;;;;;20.37;39.97;100776.46;1705306;83;21049;-76
2022/05/03 01:19:06;;;;;;;4.67;3.20;;;;;;;20.36;39.98;100781.20;1694214;84;21069;-76
2022/05/03 01:22:09;;;;;;;5.22;2.98;;;;;;;20.36;40.00;100774.86;1670302;84;21044;-76
2022/05/03 01:24:52;;;;;;;5.75;3.25;;;;;;;20.36;40.02;100777.62;1703902;84;21779;-76
2022/05/03 01:27:30;;;;;;;5.60;3.12;;;;;;;20.35;39.98;100780.95;1703672;82;21041;-76
2022/05/03 01:29:58;;;;;;;5.72;3.25;;;;;;;20.36;40.02;100785.91;1669318;84;21104;-76
2022/05/03 01:32:24;;;;;;;4.03;3.00;;;;;;;20.35;40.03;100782.89;1704051;84;21045;-76
2022/05/03 01:34:51;;;;;;;5.20;3.40;;;;;;;20.35;40.05;100773.22;1701748;84;21602;-76
2022/05/03 01:37:59;;;;;;;5.12;3.33;;;;;;;20.35;40.06;100782.33;1697579;84;21116;-76
2022/05/03 01:40:46;;;;;;;6.20;3.05;;;;;;;20.35;40.08;100776.80;1704107;84;20990;-77
2022/05/03 01:43:22;;;;;;;3.62;2.95;;;;;;;20.35;40.08;100778.19;1695419;84;21084;-76
2022/05/03 01:46:10;;;;;;;6.42;3.42;;;;;;;20.35;40.06;100778.74;1702717;84;21634;-76
2022/05/03 01:52:09;;;;;;;4.62;3.70;;;;;;;20.34;40.10;100776.55;1704281;83;21084;-76
2022/05/03 01:55:23;;;;;;;4.92;3.20;;;;;;;20.34;40.09;100776.55;1703657;82;26993;-77
2022/05/03 01:58:36;;;;;;;5.08;3.52;;;;;;;20.34;40.09;100768.81;1698951;84;21021;-77
2022/05/03 02:01:05;;;;;;;6.40;4.00;;;;;;;20.31;40.10;100766.70;1703597;82;21065;-77
2022/05/03 02:03:46;;;;;;;4.25;3.72;;;;;;;20.32;40.11;100773.30;1704351;84;21233;-77
2022/05/03 02:06:14;;;;;;;;;;;;;;;20.31;40.12;100767.52;1706395;84;21200;-77
2022/05/03 02:08:57;;;;;;;5.53;3.72;;;;;;;20.31;40.18;100768.08;1703464;82;20120;-77
2022/05/03 02:11:46;;;;;;;4.87;3.70;;;;;;;20.30;40.17;100772.78;1700407;84;21072;-77
2022/05/03 02:17:44;;;;;;;4.58;3.87;;;;;;;20.30;40.20;100776.11;1696274;83;21084;-76
2022/05/03 02:21:00;;;;;;;5.45;3.45;;;;;;;20.30;40.21;100778.31;1693956;83;21221;-77
2022/05/03 02:24:03;;;;;;;6.95;3.65;;;;;;;20.30;40.20;100776.11;1685370;83;21119;-76
2022/05/03 02:26:52;;;;;;;4.87;3.22;;;;;;;20.29;40.21;100775.82;1694931;84;21132;-77
2022/05/03 02:29:35;;;;;;;6.25;3.33;;;;;;;20.28;40.22;100780.56;1693976;84;21077;-77
2022/05/03 02:32:24;;;;;;;3.67;2.98;;;;;;;20.29;40.25;100778.58;1694538;83;21022;-77
2022/05/03 02:35:01;;;;;;;4.17;2.98;;;;;;;20.28;40.26;100775.59;1687631;83;22005;-77
2022/05/03 02:37:45;;;;;;;5.62;3.35;;;;;;;20.28;40.27;100773.66;1694869;84;21042;-77
2022/05/03 02:40:12;;;;;;;5.92;3.60;;;;;;;20.29;40.30;100771.67;1694611;84;21520;-77
2022/05/03 02:42:38;;;;;;;4.35;3.52;;;;;;;20.28;40.29;100768.69;1652237;84;21065;-77
2022/05/03 02:45:06;;;;;;;5.05;3.83;;;;;;;20.28;40.34;100767.30;1695554;83;21591;-77
2022/05/03 02:48:03;;;;;;;5.08;3.27;;;;;;;20.28;40.36;100768.69;1695152;84;21495;-78
2022/05/03 02:50:47;;;;;;;5.75;3.75;;;;;;;20.28;40.36;100772.27;1695159;83;21025;-75
2022/05/03 02:53:31;;;;;;;4.85;3.40;;;;;;;20.28;40.35;100765.92;1694732;84;21017;-76
2022/05/03 02:56:14;;;;;;;4.90;3.40;;;;;;;20.29;40.36;100767.00;1693677;84;21774;-76
2022/05/03 02:59:08;;;;;;;5.08;3.62;;;;;;;20.28;40.36;100761.22;1687542;83;21041;-76
2022/05/03 03:01:58;;;;;;;6.25;3.80;;;;;;;20.28;40.36;100763.16;1695735;83;22555;-75
2022/05/03 03:04:44;;;;;;;4.80;3.50;;;;;;;20.27;40.38;100758.20;1692444;83;21033;-76
2022/05/03 03:07:21;;;;;;;4.03;3.30;;;;;;;20.28;40.39;100761.78;1695261;83;21113;-77
2022/05/03 03:09:56;;;;;;;4.37;3.10;;;;;;;20.27;40.38;100765.66;1695142;84;21058;-77
2022/05/03 03:12:48;;;;;;;4.80;3.25;;;;;;;20.27;40.40;100758.76;1695428;83;21021;-77
2022/05/03 03:15:16;;;;;;;4.80;3.33;;;;;;;20.27;40.41;100762.91;1669810;83;22689;-76
2022/05/03 03:17:44;;;;;;;5.33;3.30;;;;;;;20.27;40.43;100761.52;1707874;82;21111;-76
2022/05/03 03:20:14;;;;;;;4.12;3.47;;;;;;;20.27;40.43;100760.96;1707757;82;21025;-76
2022/05/03 03:22:43;;;;;;;4.33;3.22;;;;;;;20.27;40.46;100758.20;1704812;84;21083;-77
2022/05/03 03:25:15;;;;;;;4.95;3.87;;;;;;;20.28;40.47;100760.40;1705059;84;21108;-76
2022/05/03 03:27:46;;;;;;;4.80;3.75;;;;;;;20.27;40.47;100767.87;1704804;82;21714;-76
2022/05/03 03:30:12;;;;;;;;;;;;;;;20.27;40.47;100759.58;1697548;83;20938;-76
2022/05/03 03:32:50;;;;;;;5.33;3.60;;;;;;;20.27;40.48;100768.43;1695332;84;20174;-76
2022/05/03 03:35:17;;;;;;;3.75;3.20;;;;;;;20.25;40.49;100761.83;1695148;84;21089;-76
2022/05/03 03:37:46;;;;;;;4.97;3.80;;;;;;;20.26;40.50;100767.61;1695628;83;20973;-76
2022/05/03 03:40:13;;;;;;;3.87;3.00;;;;;;;20.26;40.50;100768.17;1695325;84;22041;-76
2022/05/03 03:42:44;;;;;;;4.75;3.35;;;;;;;20.26;40.51;100768.17;1695250;84;21572;-76
2022/05/03 03:45:12;;;;;;;4.35;3.60;;;;;;;20.26;40.52;100768.99;1695649;84;21597;-76
2022/05/03 03:47:39;;;;;;;5.78;3.37;;;;;;;20.27;40.51;100765.66;1695106;83;21140;-76
2022/05/03 03:50:07;;;;;;;4.55;3.65;;;;;;;20.27;40.51;100772.02;1695243;84;21038;-76
2022/05/03 03:52:34;;;;;;;4.83;3.37;;;;;;;20.28;40.53;100776.97;1695295;84;21564;-76
2022/05/03 03:55:02;;;;;;;5.05;3.50;;;;;;;20.27;40.53;100769.81;1698553;84;21090;-76
2022/05/03 03:57:28;;;;;;;5.20;3.20;;;;;;;20.28;40.56;100769.51;1695236;84;21042;-76
2022/05/03 03:59:54;;;;;;;4.65;3.50;;;;;;;20.29;40.56;100771.14;1694636;83;21510;-76
2022/05/03 04:02:22;;;;;;;6.17;3.50;;;;;;;20.29;40.56;100772.53;1692536;84;21101;-76
2022/05/03 04:04:48;;;;;;;5.35;3.17;;;;;;;20.29;40.58;100778.05;1694637;84;21954;-76
2022/05/03 04:07:15;;;;;;;4.87;3.20;;;;;;;20.30;40.59;100781.63;1694467;83;21030;-76
2022/05/03 04:09:41;;;;;;;4.78;3.35;;;;;;;20.30;40.60;100784.39;1673901;84;21121;-77
2022/05/03 04:12:08;;;;;;;6.75;3.22;;;;;;;20.30;40.62;100782.45;1694345;83;21077;-77
2022/05/03 04:14:35;;;;;;;6.90;3.37;;;;;;;20.29;40.66;100784.11;1693552;84;21089;-77
2022/05/03 04:17:01;;;;;;;5.35;3.40;;;;;;;20.29;40.64;100784.96;1687454;84;21519;-77
2022/05/03 04:19:35;;;;;;;6.05;3.58;;;;;;;20.29;40.69;100786.34;1693876;83;21057;-77
2022/05/03 04:22:12;;;;;;;5.95;3.75;;;;;;;20.29;40.69;100789.11;1666194;84;21976;-77
2022/05/03 04:24:29;;;;;;;5.40;3.50;;;;;;;20.30;40.68;100787.98;1690882;83;21046;-77
2022/05/03 04:26:55;;;;;;;4.20;3.30;;;;;;;20.30;40.69;100790.74;1708135;82;21582;-77
2022/05/03 04:29:22;;;;;;;6.05;3.33;;;;;;;20.31;40.72;100786.03;1692760;83;21291;-77
2022/05/03 04:31:48;;;;;;;5.50;3.15;;;;;;;20.31;40.72;100789.62;1651510;82;21045;-77
2022/05/03 04:34:14;;;;;;;3.52;3.20;;;;;;;20.31;40.70;100785.47;1703551;81;21007;-77
2022/05/03 04:36:41;;;;;;;5.12;3.58;;;;;;;20.31;40.73;100787.41;1679582;83;21241;-78
2022/05/03 04:39:07;;;;;;;5.72;3.50;;;;;;;20.29;40.77;100784.96;1666452;84;21034;-77
2022/05/03 04:41:33;;;;;;;10.85;4.40;;;;;;;20.30;40.81;100791.30;1673041;84;21098;-77
2022/05/03 04:44:01;;;;;;;10.15;3.58;;;;;;;20.30;40.87;100793.50;1701259;81;21132;-81
2022/05/03 04:46:27;;;;;;;7.28;3.72;;;;;;;20.29;40.92;100796.02;1690439;82;21117;-81
2022/05/03 04:48:54;;;;;;;10.50;5.08;;;;;;;20.28;41.02;100790.79;1695814;83;21053;-79
2022/05/03 04:51:22;;;;;;;10.90;5.12;;;;;;;20.28;41.12;100793.55;1670211;84;21152;-79
2022/05/03 04:53:49;;;;;;;12.25;5.30;;;;;;;20.26;41.21;100792.48;1679775;83;22000;-78
2022/05/03 04:56:23;;;;;;;18.90;5.70;;;;;;;20.26;41.33;100793.86;1687417;83;21045;-77
2022/05/03 04:58:50;;;;;;;18.80;6.30;;;;;;;20.26;41.46;100791.09;1692539;83;21053;-76
2022/05/03 05:01:17;;;;;;;12.20;6.08;;;;;;;20.27;41.59;100796.05;1669535;83;21058;-77
2022/05/03 05:03:44;;;;;;;19.17;5.87;;;;;;;20.26;41.69;100796.63;1715507;83;21020;-76
2022/05/03 05:06:10;;;;;;;15.40;7.12;;;;;;;20.27;41.75;100793.30;1713364;82;21806;-75
2022/05/03 05:08:38;;;;;;;13.30;6.35;;;;;;;20.26;41.83;100791.09;1713684;82;21017;-75
2022/05/03 05:11:04;;;;;;;11.80;5.42;;;;;;;20.30;41.90;100789.92;1715020;82;21473;-76
2022/05/03 05:13:32;;;;;;;17.20;6.65;;;;;;;20.34;41.89;100790.36;1705915;82;21088;-76
2022/05/03 05:15:58;;;;;;;16.42;5.58;;;;;;;20.38;41.90;100791.92;1710668;83;21029;-76
2022/05/03 05:18:24;;;;;;;16.70;7.53;;;;;;;20.43;41.91;100792.61;1698394;83;21478;-76
2022/05/03 05:20:56;;;;;;;15.08;6.35;;;;;;;20.48;41.89;100793.05;1694537;83;21073;-77
2022/05/03 05:23:23;;;;;;;10.55;6.00;;;;;;;20.56;41.87;100792.27;1724011;82;21069;-76
2022/05/03 05:25:50;;;;;;;15.25;6.78;;;;;;;20.64;41.83;100787.91;1710490;83;21023;-75
2022/05/03 05:28:17;;;;;;;20.32;7.28;;;;;;;20.71;41.80;100799.34;1712832;82;21088;-76
2022/05/03 05:30:51;;;;;;;11.73;7.12;;;;;;;20.78;41.75;100796.37;1713298;82;21401;-77
2022/05/03 05:33:18;;;;;;;10.80;6.87;;;;;;;20.87;41.70;100795.02;1722764;80;21122;-76
2022/05/03 05:35:51;;;;;;;18.45;8.00;;;;;;;20.95;41.62;100794.23;1717538;81;21127;-76
2022/05/03 05:38:17;;;;;;;16.50;7.45;;;;;;;21.03;41.54;100791.24;1730908;81;21037;-77
2022/05/03 05:40:46;;;;;;;17.10;9.10;;;;;;;21.10;41.48;100802.08;1715619;81;21093;-78
2022/05/03 05:43:13;;;;;;;18.15;9.40;;;;;;;21.17;41.44;100797.51;1736541;81;21240;-77
2022/05/03 05:45:45;;;;;;;19.87;10.45;;;;;;;21.24;41.40;100801.98;1725259;81;21043;-81
2022/05/03 05:48:14;;;;;;;14.93;10.48;;;;;;;21.30;41.34;100803.48;1716860;82;21393;-80
2022/05/03 05:50:40;;;;;;;31.90;13.50;;;;;;;21.36;41.28;100802.99;1718396;80;21999;-78
2022/05/03 05:55:51;;;;;;;22.45;10.58;;;;;;;21.45;41.51;100804.96;1718419;82;21093;-83
2022/05/03 05:58:18;;;;;;;22.62;11.50;;;;;;;21.50;41.59;100810.34;1712147;81;21187;-80
2022/05/03 06:00:44;;;;;;;20.23;10.48;;;;;;;21.54;41.67;100814.91;1696987;82;21060;-81
2022/05/03 06:03:10;;;;;;;30.68;10.38;;;;;;;21.58;41.72;100819.23;1708202;81;21298;-78
2022/05/03 06:05:37;;;;;;;21.85;9.15;;;;;;;21.62;41.81;100819.64;1721984;82;21107;-77
2022/05/03 06:08:04;;;;;;;23.35;10.05;;;;;;;21.68;42.01;100816.16;1695334;83;21287;-78
2022/05/03 06:10:30;;;;;;;21.65;10.13;;;;;;;21.70;42.02;100816.06;1718592;83;21586;-79
2022/05/03 06:12:59;;;;;;;21.77;9.33;;;;;;;21.73;42.09;100814.59;1683903;83;21718;-78
2022/05/03 06:15:25;;;;;;;22.55;9.35;;;;;;;21.76;42.07;100814.78;1663758;83;22192;-81
2022/05/03 06:17:52;;;;;;;18.48;9.68;;;;;;;21.78;42.08;100813.88;1665232;84;21090;-77
2022/05/03 06:20:18;;;;;;;17.67;9.70;;;;;;;21.80;42.07;100814.94;1674662;83;21982;-77
2022/05/03 06:22:45;;;;;;;18.35;10.03;;;;;;;21.82;42.09;100819.00;1666900;83;21122;-76
2022/05/03 06:25:11;;;;;;;23.18;9.65;;;;;;;21.86;42.10;100821.36;1698643;83;20989;-76
2022/05/03 06:27:38;;;;;;;17.70;9.48;;;;;;;21.88;42.08;100818.28;1664189;83;21069;-78
2022/05/03 06:30:05;;;;;;;26.60;9.78;;;;;;;21.90;42.07;100820.14;1676637;84;21177;-76
2022/05/03 06:32:32;;;;;;;18.77;11.08;;;;;;;21.93;42.03;100827.84;1656785;86;21067;-80
2022/05/03 06:35:04;;;;;;;22.65;10.63;;;;;;;21.95;42.02;100823.34;1671355;84;21094;-78
2022/05/03 06:37:36;;;;;;;25.65;10.82;;;;;;;21.97;41.99;100829.39;1670681;84;21083;-78
2022/05/03 06:40:05;;;;;;;20.15;11.75;;;;;;;22.00;41.96;100830.11;1671782;83;21073;-79
2022/05/03 06:42:37;;;;;;;21.82;11.83;;;;;;;22.02;41.94;100825.08;1654690;85;21117;-78
2022/05/03 06:45:07;;;;;;;34.88;14.98;;;;;;;22.03;41.92;100833.61;1667553;85;21472;-79
2022/05/03 06:47:33;;;;;;;36.00;15.45;;;;;;;22.04;41.91;100832.47;1684448;84;21074;-87
2022/05/03 06:50:00;;;;;;;25.75;14.63;;;;;;;22.04;41.95;100835.25;1709761;83;21497;-82
2022/05/03 06:52:27;;;;;;;26.85;13.50;;;;;;;22.05;42.05;100830.77;1697561;83;21181;-86
2022/05/03 06:54:59;;;;;;;25.17;12.20;;;;;;;22.06;42.15;100834.36;1700165;83;22293;-85
2022/05/03 06:57:26;;;;;;;22.32;12.73;;;;;;;22.10;42.30;100839.49;1686553;84;21134;-82
2022/05/03 07:00:06;;;;;;;26.60;11.53;;;;;;;22.12;42.34;100841.34;1692651;82;21871;-84
2022/05/03 07:02:32;;;;;;;30.35;11.50;;;;;;;22.14;42.50;100834.92;1700704;83;21055;-79
2022/05/03 07:04:59;;;;;;;27.73;11.30;;;;;;;22.16;42.69;100838.98;1699871;83;22056;-78
2022/05/03 07:07:27;;;;;;;36.25;11.93;;;;;;;22.16;42.83;100840.37;1696516;83;21380;-79
2022/05/03 07:09:54;;;;;;;38.33;11.40;;;;;;;22.15;42.94;100841.51;1679342;84;21118;-82
2022/05/03 07:12:20;;;;;;;19.40;10.98;;;;;;;22.15;43.03;100840.13;1672112;84;21457;-79
2022/05/03 07:14:47;;;;;;;32.05;10.80;;;;;;;22.13;43.08;100835.49;1671287;85;21751;-82
2022/05/03 07:22:45;;;;;;;27.17;11.50;;;;;;;22.09;43.17;100841.45;1698693;83;22052;-83
2022/05/03 07:25:13;;;;;;;23.18;10.72;;;;;;;22.07;43.15;100837.36;1717935;82;21026;-78
2022/05/03 07:27:39;;;;;;;30.52;10.58;;;;;;;22.06;43.16;100838.52;1720959;81;21072;-78
2022/05/03 07:30:07;;;;;;;28.45;11.12;;;;;;;22.02;43.18;100836.98;1725479;81;21094;-77
2022/05/03 07:32:34;;;;;;;20.70;10.75;;;;;;;21.99;43.22;100837.61;1718745;83;21632;-77
2022/05/03 07:35:00;;;;;;;31.00;11.38;;;;;;;21.98;43.23;100833.80;1718278;83;21494;-75
2022/05/03 07:37:26;;;;;;;24.18;11.97;;;;;;;21.95;43.26;100835.81;1723275;82;21390;-76
2022/05/03 07:39:52;;;;;;;26.80;11.93;;;;;;;21.94;43.26;100836.38;1716785;82;21404;-76
2022/05/03 07:42:18;;;;;;;26.30;11.45;;;;;;;21.92;43.27;100829.52;1706443;82;21253;-78
2022/05/03 07:44:45;;;;;;;23.45;11.60;;;;;;;21.91;43.28;100830.65;1725167;82;21060;-81
2022/05/03 07:47:11;;;;;;;31.50;12.47;;;;;;;21.87;43.30;100828.54;1728080;82;21148;-85
2022/05/03 07:49:41;;;;;;;27.58;12.63;;;;;;;21.85;43.36;100839.11;1729783;80;21056;-86
2022/05/03 07:52:08;;;;;;;26.05;12.03;;;;;;;21.82;43.45;100835.62;1721023;81;21557;-86
2022/05/03 07:54:34;;;;;;;34.15;11.03;;;;;;;21.80;43.53;100844.02;1725902;81;21051;-87
2022/05/03 07:57:01;;;;;;;40.08;10.93;;;;;;;21.79;44.04;100843.77;1724306;82;21078;-83
2022/05/03 07:59:27;;;;;;;32.60;10.32;;;;;;;21.78;44.13;100837.41;1706906;82;21128;-84
2022/05/03 08:01:54;;;;;;;28.85;10.38;;;;;;;21.76;44.23;100842.47;1707319;82;21113;-87
2022/05/03 08:04:23;;;;;;;31.23;8.55;;;;;;;21.75;44.26;100843.61;1727029;82;21111;-82
2022/05/03 08:06:50;;;;;;;22.27;8.98;;;;;;;21.75;44.52;100845.55;1715468;81;21074;-82
2022/05/03 08:09:16;;;;;;;27.45;9.13;;;;;;;21.73;44.55;100848.64;1732203;80;21089;-80
2022/05/03 08:11:43;;;;;;;23.30;7.90;;;;;;;21.73;44.62;100839.52;1732697;80;21173;-80
2022/05/03 08:14:09;;;;;;;32.53;9.15;;;;;;;21.71;44.67;100842.62;1726413;82;21153;-80
2022/05/03 08:16:35;;;;;;;26.45;8.98;;;;;;;21.70;44.86;100840.98;1697643;83;21109;-80
2022/05/03 08:19:02;;;;;;;25.70;8.63;;;;;;;21.68;44.94;100835.54;1677012;83;21579;-83
2022/05/03 08:21:28;;;;;;;23.25;8.63;;;;;;;21.67;45.00;100841.64;1682993;84;21347;-81
2022/05/03 08:24:01;;;;;;;24.98;8.10;;;;;;;21.66;45.16;100835.86;1634070;86;21637;-78
2022/05/03 08:26:27;;;;;;;24.60;8.38;;;;;;;21.66;45.38;100837.23;1650947;85;21112;-81
2022/05/03 08:28:55;;;;;;;21.82;8.55;;;;;;;21.64;45.40;100836.73;1706425;81;32792;-77
2022/05/03 08:31:21;;;;;;;22.82;8.83;;;;;;;21.63;45.51;100832.92;1702737;82;21071;-78
2022/05/03 08:33:47;;;;;;;28.20;10.20;;;;;;;21.61;45.53;100833.23;1681469;84;21131;-80
2022/05/03 08:36:21;;;;;;;19.35;10.50;;;;;;;21.62;45.69;100836.82;1646822;84;21221;-81
2022/05/03 08:44:19;;;;;;;33.88;13.98;;;;;;;21.59;45.59;100829.99;1700727;82;21100;-79
2022/05/03 08:46:45;;;;;;;28.83;14.43;;;;;;;21.57;45.61;100828.10;1709306;81;21052;-79
2022/05/03 08:49:17;;;;;;;31.07;12.30;;;;;;;21.57;45.69;100830.88;1688147;82;22089;-79
2022/05/03 08:51:43;;;;;;;27.00;11.57;;;;;;;21.57;45.69;100826.72;1665185;82;21126;-79
2022/05/03 08:54:09;;;;;;;41.63;10.25;;;;;;;21.57;45.67;100831.44;1675146;84;21048;-79
2022/05/03 08:56:37;;;;;;;29.12;9.83;;;;;;;21.55;45.63;100830.96;1646062;85;21540;-79
2022/05/03 08:59:03;;;;;;;26.97;9.33;;;;;;;21.53;45.55;100833.22;1643120;84;21950;-78
2022/05/03 09:01:29;;;;;;;31.40;9.35;;;;;;;21.50;45.42;100825.00;1648045;84;21114;-78
2022/05/03 09:03:56;;;;;;;23.47;8.68;;;;;;;21.50;45.41;100829.16;1672540;84;21135;-78
2022/05/03 09:06:43;;;;;;;22.32;8.10;;;;;;;21.49;45.30;100827.52;1652919;84;21090;-78
2022/05/03 09:09:12;;;;;;;27.40;7.85;;;;;;;21.46;45.14;100828.17;1651836;84;21153;-79
2022/05/03 09:11:50;;;;;;;21.57;8.23;;;;;;;21.43;45.04;100832.38;1705905;82;21614;-77
2022/05/03 09:14:42;;;;;;;19.98;8.13;;;;;;;21.43;44.97;100831.00;1701187;82;21095;-79
2022/05/03 09:17:15;;;;;;;19.62;7.95;;;;;;;21.42;44.82;100825.81;1708186;82;21471;-77
2022/05/03 09:19:41;;;;;;;20.37;7.90;;;;;;;21.40;44.76;100823.92;1707665;82;21115;-78
2022/05/03 09:24:57;;;;;;;13.72;7.03;;;;;;;21.38;44.49;100824.83;1709101;82;21051;-78
2022/05/03 09:27:25;;;;;;;18.52;8.45;;;;;;;21.36;44.35;100819.59;1702232;82;22156;-77
2022/05/03 09:30:08;;;;;;;16.27;7.72;;;;;;;21.35;44.27;100812.99;1700980;82;20945;-78
2022/05/03 09:32:54;;;;;;;19.75;8.45;;;;;;;21.34;44.23;100815.53;1708509;82;20949;-81
2022/05/03 09:35:38;;;;;;;20.17;9.00;;;;;;;21.34;44.16;100804.47;1677924;83;20938;-78
2022/05/03 09:38:04;;;;;;;20.60;9.73;;;;;;;21.33;44.05;100813.34;1707691;83;20970;-79
2022/05/03 09:40:40;;;;;;;19.50;7.90;;;;;;;21.31;43.92;100811.44;1705895;82;21038;-78
2022/05/03 09:43:06;;;;;;;14.65;7.30;;;;;;;21.31;43.93;100811.44;1675106;84;20971;-79
2022/05/03 09:45:33;;;;;;;11.30;6.80;;;;;;;21.30;43.90;100811.19;1702160;82;21061;-78
2022/05/03 09:48:00;;;;;;;14.00;7.55;;;;;;;21.31;43.85;100805.09;1706932;82;21299;-79
2022/05/03 09:50:38;;;;;;;16.20;7.53;;;;;;;21.30;43.76;100797.35;1684649;84;21115;-79
2022/05/03 09:53:21;;;;;;;18.07;6.60;;;;;;;21.30;43.62;100797.95;1703440;82;21717;-79
2022/05/03 09:55:50;;;;;;;17.45;7.15;;;;;;;21.29;43.59;100794.92;1702330;82;21044;-78
2022/05/03 09:58:20;;;;;;;18.80;7.28;;;;;;;21.27;43.70;100798.01;1713441;82;21729;-79
2022/05/03 10:00:48;;;;;;;;;;;;;;;21.29;44.07;100803.23;1715477;82;21116;-79
2022/05/03 10:03:14;;;;;;;12.73;5.35;;;;;;;21.30;44.35;100796.56;1706698;82;20476;-78
2022/05/03 10:05:42;;;;;;;13.13;5.22;;;;;;;21.30;44.21;100791.81;1706644;82;21618;-80
2022/05/03 10:08:16;;;;;;;15.28;4.45;;;;;;;21.30;44.16;100790.44;1705239;81;21056;-78
2022/05/03 10:10:43;;;;;;;12.10;4.67;;;;;;;21.30;43.96;100795.18;1682790;82;21060;-79
2022/05/03 10:13:09;;;;;;;13.88;4.15;;;;;;;21.29;43.93;100793.55;1718643;82;21925;-79
2022/05/03 10:21:30;;;;;;;22.60;7.37;;;;;;;21.24;43.83;100788.98;1716627;82;21129;-79
2022/05/03 10:24:11;;;;;;;21.48;8.13;;;;;;;21.21;43.81;100784.66;1725966;81;21841;-79
2022/05/03 10:27:07;;;;;;;;;;;;;;;21.21;43.78;100779.13;1708700;82;21665;-76
2022/05/03 10:29:36;;;;;;;36.03;7.92;;;;;;;21.18;43.58;100779.75;1705348;82;20676;-78
2022/05/03 10:32:18;;;;;;;42.35;8.60;;;;;;;21.17;43.59;100780.91;1703839;82;22391;-76
2022/05/03 10:34:54;;;;;;;27.32;7.33;;;;;;;21.15;43.49;100779.02;1700975;82;21062;-76
2022/05/03 10:37:34;;;;;;;25.25;7.00;;;;;;;21.14;43.39;100775.43;1708752;82;21036;-78
2022/05/03 10:40:03;;;;;;;27.30;6.03;;;;;;;21.12;43.27;100770.80;1702534;83;21178;-78
2022/05/03 10:42:30;;;;;;;24.50;5.58;;;;;;;21.11;43.21;100769.14;1705654;82;21043;-79
2022/05/03 10:45:09;;;;;;;21.10;6.45;;;;;;;21.11;43.14;100769.14;1707967;82;21162;-78
2022/05/03 10:47:53;;;;;;;30.57;6.50;;;;;;;21.12;43.08;100764.42;1704199;82;21841;-79
2022/05/03 10:50:22;;;;;;;19.23;5.47;;;;;;;21.11;43.00;100772.47;1687805;82;21066;-80
2022/05/03 10:53:07;;;;;;;15.90;5.15;;;;;;;21.10;42.81;100768.88;1700514;82;21043;-79
2022/05/03 10:55:40;;;;;;;21.00;4.60;;;;;;;21.11;42.81;100761.40;1701883;82;21386;-77
2022/05/03 10:58:25;;;;;;;19.40;4.90;;;;;;;21.11;42.84;100766.94;1704613;82;22428;-78
2022/05/03 11:01:20;;;;;;;13.98;4.10;;;;;;;21.11;42.67;100761.40;1705744;82;21391;-78
2022/05/03 11:04:01;;;;;;;23.65;4.78;;;;;;;21.09;42.42;100757.56;1718869;81;21037;-80
2022/05/03 11:06:32;;;;;;;12.85;4.10;;;;;;;21.08;42.41;100756.52;1712131;82;21162;-80
2022/05/03 11:11:42;;;;;;;17.00;4.17;;;;;;;21.07;42.37;100753.50;1717549;82;21603;-79
2022/05/03 11:14:24;;;;;;;14.05;3.90;;;;;;;21.08;42.37;100760.67;1703445;82;21112;-79
2022/05/03 11:17:08;;;;;;;26.40;5.22;;;;;;;21.09;42.37;100750.65;1707809;83;21103;-79
2022/05/03 11:19:49;;;;;;;25.57;4.45;;;;;;;21.08;42.38;100750.98;1707377;82;21020;-81
2022/05/03 11:22:25;;;;;;;16.45;4.35;;;;;;;21.09;42.30;100742.95;1704907;82;21665;-78
2022/05/03 11:24:54;;;;;;;12.40;3.77;;;;;;;21.09;42.42;100736.81;1701361;82;21602;-80
2022/05/03 11:27:21;;;;;;;9.28;4.03;;;;;;;21.11;42.39;100740.09;1686212;83;20879;-82
2022/05/03 11:29:59;;;;;;;12.20;3.72;;;;;;;21.12;42.38;100745.05;1698558;83;21096;-80
2022/05/03 11:32:32;;;;;;;14.13;4.87;;;;;;;21.12;42.37;100740.38;1697525;83;22153;-79
2022/05/03 11:35:02;;;;;;;13.62;5.28;;;;;;;21.13;42.32;100736.45;1695814;83;21052;-80
2022/05/03 11:37:29;;;;;;;10.80;4.25;;;;;;;21.14;42.20;100737.27;1691832;83;21074;-78
2022/05/03 11:40:04;;;;;;;13.45;4.42;;;;;;;21.13;42.18;100722.61;1688685;83;21067;-79
2022/05/03 11:42:42;;;;;;;15.65;4.47;;;;;;;21.14;42.17;100720.66;1693198;81;21080;-81
2022/05/03 11:45:09;;;;;;;10.48;4.58;;;;;;;21.15;42.26;100718.97;1698020;81;21044;-77
2022/05/03 11:47:44;;;;;;;14.45;4.67;;;;;;;21.16;42.17;100719.78;1699429;81;21070;-80
2022/05/03 11:55:58;;;;;;;11.28;4.67;;;;;;;21.16;42.06;100726.70;1684305;83;21141;-79
2022/05/03 11:58:26;;;;;;;12.63;3.42;;;;;;;21.18;42.21;100721.08;1697803;81;21027;-77
2022/05/03 12:00:53;;;;;;;10.98;3.25;;;;;;;21.17;42.08;100711.17;1686593;83;21120;-77
2022/05/03 12:03:19;;;;;;;14.65;4.12;;;;;;;21.19;42.15;100706.69;1697632;83;21101;-79
2022/05/03 12:06:00;;;;;;;11.28;3.52;;;;;;;21.19;42.06;100706.69;1703768;81;21054;-78
2022/05/03 12:08:26;;;;;;;11.63;3.05;;;;;;;21.18;42.01;100703.66;1700571;83;21124;-79
2022/05/03 12:10:56;;;;;;;12.50;3.25;;;;;;;21.18;41.93;100705.05;1680309;83;21211;-77
2022/05/03 12:13:27;;;;;;;8.28;3.15;;;;;;;21.15;41.66;100703.75;1700806;83;21310;-79
2022/05/03 12:16:01;;;;;;;11.85;2.83;;;;;;;21.09;41.21;100695.32;1688663;83;21135;-79
2022/05/03 12:18:37;;;;;;;4.17;2.62;;;;;;;21.05;41.21;100701.85;1684197;83;22137;-78
2022/05/03 12:21:15;;;;;;;7.05;2.90;;;;;;;21.02;41.10;100696.38;1688522;81;21132;-79
2022/05/03 12:23:45;;;;;;;6.85;2.40;;;;;;;20.96;41.17;100697.09;1680940;82;21914;-81